CA-0486 weather

CLOSED Leaside Aerodrome
Toronto, Ontario, Canada

Public forecast

Using degrees Celsius for public forecast. Weather courtesy of forecast.io.

Closest aviation weather report (METAR) to Leaside Aerodrome

Closest report is Billy Bishop Toronto City Centre Airport, 5.4 nm (9.9 km) SSW. Retrieved 2020/07/14 03:00 UTC (15 minutes ago):

CYTZ 140300Z AUTO 32005KT 290V010 9SM CLR 20/15 A2994 RMK SLP140 DENSITY ALT 900FT

Closest aviation forecast (TAF) to Leaside Aerodrome

Closest forecast is Billy Bishop Toronto City Centre Airport, 5.4 nm (9.9 km) SSW. Retrieved 2020-07-14 02:42 UTC (33 minutes ago):

TAF CYTZ 140138Z 1402/1502 33008KT P6SM SCT040 FM141400 VRB03KT P6SM BKN040 BECMG 1416/1418 18008KT FM142200 18008KT P6SM SCT050 RMK FCST BASED ON AUTO OBS NXT FCST BY 140800Z